createdAt,value
2018-12-29T00:00:45.137Z,32.63
2018-12-29T00:02:46.862Z,34.27
2018-12-29T00:04:48.670Z,32.00
2018-12-29T00:06:50.406Z,31.23
2018-12-29T00:08:52.126Z,34.80
2018-12-29T00:10:53.850Z,32.55
2018-12-29T00:12:55.586Z,32.75
2018-12-29T00:14:57.297Z,35.63
2018-12-29T00:16:59.018Z,34.05
2018-12-29T00:19:00.937Z,39.25
2018-12-29T00:21:02.909Z,43.20
2018-12-29T00:23:04.647Z,35.43
2018-12-29T00:25:06.394Z,35.10
2018-12-29T00:27:08.110Z,33.53
2018-12-29T00:29:09.847Z,32.13
2018-12-29T00:31:11.594Z,34.78
2018-12-29T00:33:13.327Z,32.00
2018-12-29T00:35:15.062Z,32.05
2018-12-29T00:37:17.043Z,30.60
2018-12-29T00:39:18.777Z,32.10
2018-12-29T00:41:20.603Z,30.55
2018-12-29T00:43:22.381Z,33.30
2018-12-29T00:45:24.275Z,34.23
2018-12-29T00:47:26.015Z,32.83
2018-12-29T00:49:27.827Z,34.03
2018-12-29T00:51:29.551Z,32.78
2018-12-29T00:53:31.525Z,33.40
2018-12-29T00:55:33.262Z,34.73
2018-12-29T00:57:35.094Z,33.00
2018-12-29T00:59:36.833Z,31.20
2018-12-29T01:01:38.953Z,29.92
2018-12-29T01:03:40.693Z,31.65
2018-12-29T01:05:42.400Z,31.80
2018-12-29T01:07:44.137Z,31.50
2018-12-29T01:09:46.058Z,31.02
2018-12-29T01:11:48.080Z,32.48
2018-12-29T01:13:49.814Z,32.60
2018-12-29T01:15:51.561Z,33.60
2018-12-29T01:17:53.290Z,29.95
2018-12-29T01:19:55.234Z,30.17
2018-12-29T01:21:56.969Z,30.77
2018-12-29T01:23:58.693Z,30.75
2018-12-29T01:26:00.425Z,29.80
2018-12-29T01:28:02.155Z,29.72
2018-12-29T01:30:05.337Z,32.28
2018-12-29T01:32:07.033Z,29.98
2018-12-29T01:34:08.745Z,29.10
2018-12-29T01:36:10.479Z,29.72
2018-12-29T01:38:12.209Z,29.70
2018-12-29T01:40:13.931Z,29.48
2018-12-29T01:42:15.659Z,29.52
2018-12-29T01:44:17.378Z,27.50
2018-12-29T01:46:19.110Z,28.07
2018-12-29T01:48:20.861Z,28.20
2018-12-29T01:50:22.585Z,28.47
2018-12-29T01:52:24.285Z,27.27
2018-12-29T01:54:26.261Z,29.15
2018-12-29T01:56:27.981Z,27.62
2018-12-29T01:58:29.685Z,26.17
2018-12-29T02:00:31.722Z,29.67
2018-12-29T02:02:33.439Z,29.23
2018-12-29T02:04:35.161Z,26.93
2018-12-29T02:06:36.906Z,29.23
2018-12-29T02:08:38.865Z,28.87
2018-12-29T02:10:40.589Z,27.93
2018-12-29T02:12:42.327Z,29.07
2018-12-29T02:14:44.026Z,28.40
2018-12-29T02:16:45.852Z,30.23
2018-12-29T02:18:49.286Z,25.85
2018-12-29T02:20:51.253Z,29.65
2018-12-29T02:22:52.976Z,32.08
2018-12-29T02:24:54.693Z,30.40
2018-12-29T02:26:56.548Z,30.68
2018-12-29T02:28:58.265Z,31.35
2018-12-29T02:30:59.975Z,31.80
2018-12-29T02:33:01.726Z,30.88
2018-12-29T02:35:03.600Z,29.95
2018-12-29T02:37:05.319Z,29.35
2018-12-29T02:39:07.179Z,29.52
2018-12-29T02:41:08.921Z,30.48
2018-12-29T02:43:10.645Z,29.82
2018-12-29T02:45:12.406Z,32.08
2018-12-29T02:47:14.126Z,32.28
2018-12-29T02:49:15.849Z,31.15
2018-12-29T02:51:17.675Z,30.05
2018-12-29T02:53:19.387Z,29.55
2018-12-29T02:55:21.090Z,29.23
2018-12-29T02:57:22.841Z,30.08
2018-12-29T02:59:24.553Z,30.05
2018-12-29T03:01:26.289Z,31.73
2018-12-29T03:03:28.226Z,32.53
2018-12-29T03:05:29.938Z,30.05
2018-12-29T03:07:31.659Z,31.15
2018-12-29T03:09:33.407Z,33.15
2018-12-29T03:11:35.117Z,30.68
2018-12-29T03:13:36.866Z,29.95
2018-12-29T03:15:41.700Z,30.70
2018-12-29T03:17:42.390Z,29.40
2018-12-29T03:19:44.103Z,30.43
2018-12-29T03:21:46.166Z,28.30
2018-12-29T03:23:50.581Z,31.33
2018-12-29T03:25:52.320Z,30.45
2018-12-29T03:27:54.297Z,28.42
2018-12-29T03:29:56.014Z,29.57
2018-12-29T03:31:57.742Z,28.62
2018-12-29T03:33:59.480Z,28.83
2018-12-29T03:36:01.192Z,27.87
2018-12-29T03:38:02.906Z,31.82
2018-12-29T03:40:05.490Z,27.25
2018-12-29T03:42:07.213Z,28.02
2018-12-29T03:44:08.947Z,30.88
2018-12-29T03:46:11.988Z,28.77
2018-12-29T03:48:13.709Z,27.17
2018-12-29T03:50:15.565Z,31.87
2018-12-29T03:52:17.443Z,29.75
2018-12-29T03:54:19.301Z,28.85
2018-12-29T03:56:21.166Z,28.73
2018-12-29T03:58:23.046Z,26.37
2018-12-29T04:00:24.902Z,29.37
2018-12-29T04:02:26.771Z,25.97
2018-12-29T04:04:28.641Z,24.30
2018-12-29T04:06:30.512Z,26.12
2018-12-29T04:08:32.365Z,27.77
2018-12-29T04:10:34.423Z,25.45
2018-12-29T04:12:37.297Z,25.80
2018-12-29T04:14:39.234Z,26.60
2018-12-29T04:16:41.218Z,24.92
2018-12-29T04:18:43.069Z,26.37
2018-12-29T04:20:45.027Z,24.45
2018-12-29T04:22:46.889Z,26.60
2018-12-29T04:24:48.760Z,24.90
2018-12-29T04:26:50.609Z,26.27
2018-12-29T04:28:52.560Z,27.22
2018-12-29T04:30:54.417Z,27.13
2018-12-29T04:32:56.274Z,26.48
2018-12-29T04:34:58.149Z,26.05
2018-12-29T04:36:59.993Z,26.97
2018-12-29T04:39:01.952Z,27.70
2018-12-29T04:41:04.077Z,28.05
2018-12-29T04:43:05.933Z,24.90
2018-12-29T04:45:07.791Z,26.30
2018-12-29T04:47:09.882Z,27.17
2018-12-29T04:49:11.735Z,25.88
2018-12-29T04:51:13.597Z,25.05
2018-12-29T04:53:15.559Z,29.65
2018-12-29T04:55:17.428Z,28.55
2018-12-29T04:57:19.280Z,25.50
2018-12-29T04:59:21.149Z,27.60
2018-12-29T05:01:22.998Z,28.25
2018-12-29T05:03:24.865Z,30.65
2018-12-29T05:05:26.601Z,26.70
2018-12-29T05:07:30.837Z,27.47
2018-12-29T05:09:32.560Z,27.30
2018-12-29T05:11:34.308Z,27.77
2018-12-29T05:13:36.029Z,27.60
2018-12-29T05:15:37.756Z,27.67
2018-12-29T05:17:39.503Z,27.17
2018-12-29T05:19:41.219Z,26.52
2018-12-29T05:21:42.928Z,24.95
2018-12-29T05:23:45.009Z,26.05
2018-12-29T05:25:46.715Z,26.87
2018-12-29T05:27:48.498Z,21.93
2018-12-29T05:29:50.475Z,24.60
2018-12-29T05:31:52.185Z,24.90
2018-12-29T05:33:53.939Z,22.30
2018-12-29T05:35:56.242Z,22.87
2018-12-29T05:37:57.945Z,23.63
2018-12-29T05:39:59.686Z,22.50
2018-12-29T05:42:01.435Z,24.50
2018-12-29T05:44:03.239Z,21.67
2018-12-29T05:46:04.972Z,19.87
2018-12-29T05:48:06.708Z,18.87
2018-12-29T05:50:08.439Z,20.03
2018-12-29T05:52:10.158Z,19.92
2018-12-29T05:54:11.911Z,21.42
2018-12-29T05:56:13.645Z,20.30
2018-12-29T05:58:15.470Z,19.57
2018-12-29T06:00:17.657Z,20.82
2018-12-29T06:02:19.369Z,19.30
2018-12-29T06:04:21.073Z,19.30
2018-12-29T06:06:22.805Z,19.60
2018-12-29T06:08:24.549Z,17.42
2018-12-29T06:10:26.270Z,20.32
2018-12-29T06:12:28.381Z,20.20
2018-12-29T06:14:30.101Z,16.83
2018-12-29T06:16:31.817Z,19.15
2018-12-29T06:18:33.954Z,18.53
2018-12-29T06:20:35.660Z,17.80
2018-12-29T06:22:37.377Z,18.50
2018-12-29T06:24:39.322Z,18.83
2018-12-29T06:26:41.037Z,17.70
2018-12-29T06:28:42.769Z,18.90
2018-12-29T06:30:44.593Z,19.00
2018-12-29T06:32:46.309Z,17.32
2018-12-29T06:34:48.143Z,16.83
2018-12-29T06:36:49.979Z,17.83
2018-12-29T06:39:11.386Z,18.52
2018-12-29T06:41:32.741Z,16.97
2018-12-29T06:43:54.118Z,19.37
2018-12-29T06:46:15.481Z,18.43
2018-12-29T06:48:36.829Z,18.73
2018-12-29T06:50:58.222Z,17.10
2018-12-29T06:53:19.569Z,18.73
2018-12-29T06:55:40.933Z,19.47
2018-12-29T06:58:02.642Z,18.67
2018-12-29T07:00:23.993Z,21.20
2018-12-29T07:02:45.344Z,22.80
2018-12-29T07:05:06.706Z,22.95
2018-12-29T07:07:28.201Z,21.17
2018-12-29T07:09:49.565Z,20.70
2018-12-29T07:12:11.105Z,21.90
2018-12-29T07:14:32.449Z,23.90
2018-12-29T07:16:53.835Z,22.30
2018-12-29T07:19:15.277Z,22.57
2018-12-29T07:21:36.651Z,24.17
2018-12-29T07:23:58.025Z,25.80
2018-12-29T07:26:19.509Z,27.58
2018-12-29T07:28:40.866Z,26.20
2018-12-29T07:31:02.225Z,26.23
2018-12-29T07:33:23.697Z,28.07
2018-12-29T07:35:45.053Z,26.77
2018-12-29T07:38:06.414Z,26.87
2018-12-29T07:40:27.829Z,25.97
2018-12-29T07:42:49.185Z,26.20
2018-12-29T07:45:10.549Z,26.23
2018-12-29T07:47:32.085Z,28.43
2018-12-29T07:49:53.441Z,27.35
2018-12-29T07:52:14.795Z,26.67
2018-12-29T07:54:36.271Z,29.57
2018-12-29T07:56:57.666Z,29.27
2018-12-29T07:59:19.028Z,28.47
2018-12-29T08:01:23.233Z,25.50
2018-12-29T08:03:44.625Z,31.45
2018-12-29T08:06:06.005Z,28.57
2018-12-29T08:10:54.709Z,28.00
2018-12-29T08:13:16.082Z,27.90
2018-12-29T08:15:37.601Z,27.80
2018-12-29T08:17:51.827Z,26.27
2018-12-29T08:20:04.376Z,26.17
2018-12-29T08:22:18.859Z,25.70
2018-12-29T08:24:31.130Z,23.17
2018-12-29T08:26:52.495Z,24.23
2018-12-29T08:29:13.876Z,23.93
2018-12-29T08:31:35.290Z,21.93
2018-12-29T08:33:56.742Z,23.13
2018-12-29T08:36:18.122Z,20.77
2018-12-29T08:38:39.586Z,21.03
2018-12-29T08:41:00.937Z,23.13
2018-12-29T08:43:22.565Z,21.50
2018-12-29T08:45:43.939Z,19.67
2018-12-29T08:48:05.308Z,21.63
2018-12-29T08:50:26.662Z,19.20
2018-12-29T08:52:48.027Z,18.93
2018-12-29T08:55:09.410Z,17.13
2018-12-29T08:57:30.866Z,17.50
2018-12-29T08:59:32.571Z,16.67
2018-12-29T09:01:54.185Z,15.93
2018-12-29T09:04:15.534Z,15.50
2018-12-29T09:06:36.887Z,15.13
2018-12-29T09:08:58.259Z,13.13
2018-12-29T09:11:19.621Z,12.60
2018-12-29T09:13:40.978Z,14.13
2018-12-29T09:16:02.347Z,13.27
2018-12-29T09:18:23.813Z,13.20
2018-12-29T09:20:46.664Z,12.90
2018-12-29T09:23:01.289Z,13.73
2018-12-29T09:25:13.622Z,13.57
2018-12-29T09:27:15.333Z,14.63
2018-12-29T09:29:36.702Z,14.80
2018-12-29T09:31:38.445Z,14.90
2018-12-29T09:33:59.803Z,16.93
2018-12-29T09:36:21.407Z,18.70
2018-12-29T09:38:35.501Z,19.33
2018-12-29T09:40:56.857Z,19.47
2018-12-29T09:43:18.333Z,18.90
2018-12-29T09:45:39.991Z,19.10
2018-12-29T09:48:01.345Z,19.17
2018-12-29T09:50:22.697Z,19.30
2018-12-29T09:52:24.435Z,18.97
2018-12-29T09:54:45.795Z,18.40
2018-12-29T09:57:07.162Z,20.43
2018-12-29T09:59:28.562Z,18.80
2018-12-29T10:01:50.158Z,19.90
2018-12-29T10:04:11.517Z,20.67
2018-12-29T10:06:32.983Z,20.27
2018-12-29T10:08:54.451Z,19.97
2018-12-29T10:11:16.441Z,19.93
2018-12-29T10:16:07.858Z,20.03
2018-12-29T10:18:29.379Z,18.63
2018-12-29T10:20:50.873Z,22.47
2018-12-29T10:23:12.373Z,18.47
2018-12-29T10:25:33.870Z,19.10
2018-12-29T10:27:55.393Z,18.53
2018-12-29T10:30:16.870Z,17.30
2018-12-29T10:32:38.354Z,19.93
2018-12-29T10:34:59.877Z,18.67
2018-12-29T10:37:21.384Z,19.83
2018-12-29T11:18:19.102Z,20.65
2018-12-29T11:20:40.609Z,19.27
2018-12-29T11:48:37.772Z,15.60
2018-12-29T11:50:59.272Z,16.50
2018-12-29T11:53:21.009Z,18.10
2018-12-29T11:55:42.498Z,17.20
2018-12-29T11:58:03.993Z,17.40
2018-12-29T12:00:25.728Z,18.60
2018-12-29T12:02:47.256Z,18.07
2018-12-29T12:05:08.783Z,16.63
2018-12-29T12:07:30.526Z,14.83
2018-12-29T12:09:52.095Z,19.17
2018-12-29T12:12:13.617Z,19.10
2018-12-29T12:14:35.245Z,20.93
2018-12-29T12:16:56.837Z,20.87
2018-12-29T12:19:18.329Z,19.93
2018-12-29T12:21:39.941Z,19.40
2018-12-29T12:24:01.511Z,19.50
2018-12-29T14:52:42.730Z,32.67
2018-12-29T16:14:46.133Z,26.12
2018-12-29T16:16:58.511Z,25.45
2018-12-29T16:19:20.006Z,24.57
2018-12-29T16:21:41.476Z,21.55
2018-12-29T16:24:04.766Z,22.13
2018-12-29T16:26:26.235Z,23.73
2018-12-29T16:28:40.698Z,25.08
2018-12-29T16:30:55.542Z,26.07
2018-12-29T16:33:07.720Z,24.00
2018-12-29T16:35:29.333Z,28.47
2018-12-29T16:37:52.729Z,22.73
2018-12-29T16:40:14.226Z,20.88
2018-12-29T16:42:35.837Z,21.65
2018-12-29T16:44:57.326Z,26.20
2018-12-29T16:47:18.838Z,24.60
2018-12-29T16:49:40.603Z,23.12
2018-12-29T16:52:02.383Z,22.75
2018-12-29T16:54:23.970Z,26.27
2018-12-29T16:56:45.657Z,30.30
2018-12-29T16:59:07.137Z,24.45
2018-12-29T17:01:30.183Z,25.27
2018-12-29T17:03:52.060Z,25.05
2018-12-29T17:06:13.554Z,26.68
2018-12-29T17:08:35.368Z,24.05
2018-12-29T17:10:57.002Z,26.90
2018-12-29T17:13:18.513Z,20.62
2018-12-29T17:15:40.101Z,23.77
2018-12-29T17:18:03.536Z,28.12
2018-12-29T17:20:25.025Z,25.20
2018-12-29T17:22:46.547Z,23.87
2018-12-29T17:25:08.138Z,28.17
2018-12-29T17:27:29.749Z,19.92
2018-12-29T20:49:39.511Z,3.43
2018-12-29T20:51:41.372Z,3.73
2018-12-29T20:54:02.750Z,5.83
2018-12-29T20:56:24.373Z,4.60
2018-12-29T20:58:45.750Z,3.60
2018-12-29T21:01:07.205Z,3.50
2018-12-29T21:03:28.903Z,3.25
2018-12-29T21:05:50.350Z,3.30
2018-12-29T21:08:11.705Z,3.00
2018-12-29T21:13:00.733Z,2.77
2018-12-29T21:15:22.197Z,3.30
2018-12-29T21:17:43.578Z,4.45
2018-12-29T21:20:05.025Z,3.60
2018-12-29T21:22:26.393Z,3.10
2018-12-29T21:24:47.987Z,3.20
2018-12-29T21:27:09.438Z,3.03
2018-12-29T21:29:30.810Z,3.03
2018-12-29T21:31:52.276Z,3.07
2018-12-29T21:34:04.364Z,3.37
2018-12-29T21:36:06.237Z,3.40
2018-12-29T21:38:27.593Z,3.70
2018-12-29T21:40:49.055Z,3.07
2018-12-29T21:45:38.313Z,3.00
2018-12-29T21:47:59.665Z,3.40
2018-12-29T21:50:25.288Z,3.37
2018-12-29T21:52:44.523Z,3.37
2018-12-29T21:55:07.817Z,3.90
2018-12-29T21:57:29.193Z,3.23
2018-12-29T21:59:41.251Z,4.37
2018-12-29T22:02:02.697Z,4.37
2018-12-29T22:04:24.335Z,4.20
2018-12-29T22:06:45.695Z,4.30
2018-12-29T22:09:07.077Z,4.87
2018-12-29T22:11:28.545Z,3.97
2018-12-29T22:13:49.893Z,4.20
2018-12-29T22:16:11.347Z,5.37
2018-12-29T22:18:34.637Z,3.87
2018-12-29T22:20:56.209Z,3.90
2018-12-29T22:23:37.210Z,3.57
2018-12-29T22:25:58.629Z,4.60
2018-12-29T22:28:19.988Z,4.00
2018-12-29T22:30:41.357Z,4.57
2018-12-29T22:33:02.718Z,4.10
2018-12-29T22:35:24.309Z,5.10
2018-12-29T22:37:45.685Z,4.70
2018-12-29T22:40:07.037Z,4.83
2018-12-29T22:42:28.666Z,5.50
2018-12-29T22:44:50.021Z,5.00
2018-12-29T22:47:11.499Z,5.20
2018-12-29T22:49:34.841Z,5.70
2018-12-29T22:51:56.665Z,6.13
2018-12-29T22:54:18.027Z,5.80
2018-12-29T22:56:39.542Z,6.07
2018-12-29T22:58:41.283Z,5.50
2018-12-29T23:00:46.141Z,6.77
2018-12-29T23:02:47.897Z,6.73
2018-12-29T23:04:49.897Z,6.70
2018-12-29T23:06:51.919Z,7.90
2018-12-29T23:08:53.842Z,6.40
2018-12-29T23:10:55.721Z,17.13
2018-12-29T23:12:57.548Z,61.53
2018-12-29T23:14:59.581Z,23.47
2018-12-29T23:17:01.618Z,13.23
2018-12-29T23:19:03.665Z,7.90
2018-12-29T23:21:05.590Z,7.93
2018-12-29T23:23:07.304Z,7.67
2018-12-29T23:25:09.011Z,6.77
2018-12-29T23:27:11.481Z,7.40
2018-12-29T23:29:13.232Z,9.60
2018-12-29T23:31:14.945Z,7.30
2018-12-29T23:33:16.791Z,8.67
2018-12-29T23:35:18.709Z,7.00
2018-12-29T23:37:20.462Z,7.23
2018-12-29T23:39:22.496Z,7.10
2018-12-29T23:41:24.609Z,5.70
2018-12-29T23:43:26.721Z,6.93
2018-12-29T23:45:28.473Z,6.43
2018-12-29T23:47:30.287Z,6.47
2018-12-29T23:49:32.441Z,8.40
2018-12-29T23:51:34.545Z,6.93
2018-12-29T23:53:36.297Z,7.57
2018-12-29T23:55:38.424Z,6.73
2018-12-29T23:57:40.147Z,5.80
2018-12-29T23:59:41.999Z,7.77
